Lily Island, Texas
Current Conditions -  °F | °C
As of 1:53 PM on Sunday 25 Jan 2015 (Local Time) from KLFK Reporting Station
Clear Clear  
Wind Chill: 70°   Ceiling: Unl
Heat Index: 70°   Visibility: 10mi
Dew Point: 41°   Wind: 13mph
Humidity: 35%   Direction: 260°W
Pressure: 29.96"   Gusts: NA
Location:  30.9169°N, 94.7343°W
Report Text: KLFK 251953Z AUTO 26011KT 10SM CLR 21/05 A2996 RMK AO2 SLP144 T02110050
Loading
Personal Weather Stations






























Interactive Weather Map New forecast layout! Learn more

10-Day Weather Forecast

Advertisements
Track Severe Weather on mobile